B86001 VNPL-VNLK
Flight info
| Callsign | B86001 |
|---|---|
| Flight time | 0h 8m |
| Altitude | 16000 |
| Route | NIL |
| Aircraft | P212/L-SBDFGIRY/SB1 |
Departure
| Time | 2025-02-13 13:17 |
|---|---|
| Airport | Phaplu Airport (VNPL) |
Arrival
| Time | 2025-02-13 13:25 |
|---|---|
| Airport | Tenzing-Hillary Airport (VNLK) |
| Time | Latitude | Longitude | Altitude | Speed | Heading |
|---|---|---|---|---|---|
| 2025-02-13 13:17 | 27.42888 | 86.57678 | 10491 ft | 160 kts | 164° |
| 2025-02-13 13:17 | 27.41448 | 86.59904 | 10498 ft | 195 kts | 111° |
| 2025-02-13 13:17 | 27.41199 | 86.61401 | 10499 ft | 198 kts | 81° |
| 2025-02-13 13:18 | 27.42882 | 86.63690 | 10501 ft | 197 kts | 23° |
| 2025-02-13 13:18 | 27.45325 | 86.64759 | 10979 ft | 174 kts | 15° |
| 2025-02-13 13:19 | 27.47517 | 86.65728 | 11496 ft | 175 kts | 15° |
| 2025-02-13 13:19 | 27.49522 | 86.67612 | 11510 ft | 202 kts | 46° |
| 2025-02-13 13:20 | 27.52717 | 86.70571 | 11453 ft | 202 kts | 5° |
| 2025-02-13 13:21 | 27.55462 | 86.70926 | 11212 ft | 195 kts | 3° |
| 2025-02-13 13:21 | 27.58131 | 86.70960 | 10962 ft | 175 kts | 355° |
| 2025-02-13 13:22 | 27.60354 | 86.70900 | 10688 ft | 149 kts | 356° |
| 2025-02-13 13:22 | 27.62348 | 86.70841 | 10227 ft | 142 kts | 356° |
| 2025-02-13 13:22 | 27.63305 | 86.70821 | 10015 ft | 135 kts | 358° |
| 2025-02-13 13:23 | 27.64933 | 86.70700 | 9788 ft | 108 kts | 356° |
| 2025-02-13 13:23 | 27.66437 | 86.70791 | 9541 ft | 110 kts | 5° |
| 2025-02-13 13:24 | 27.68618 | 86.72838 | 9264 ft | 92 kts | 58° |
| 2025-02-13 13:25 | 27.68773 | 86.73134 | 9416 ft | 5 kts | 60° |
| 2025-02-13 13:25 | 27.68774 | 86.73136 | 9417 ft | 0 kts | 60° |
| 2025-02-13 13:26 | 27.68773 | 86.73134 | 9416 ft | 0 kts | 60° |
| 2025-02-13 13:26 | 27.68744 | 86.73152 | 9423 ft | 0 kts | 211° |
| 2025-02-13 13:27 | 27.68739 | 86.73149 | 9421 ft | 3 kts | 189° |
| 2025-02-13 13:27 | 27.68752 | 86.73162 | 9422 ft | 9 kts | 355° |
| 2025-02-13 13:27 | 27.68659 | 86.72920 | 9308 ft | 72 kts | 239° |
| 2025-02-13 13:28 | 27.67152 | 86.70934 | 9831 ft | 119 kts | 209° |
| 2025-02-13 13:29 | 27.65576 | 86.70518 | 10464 ft | 118 kts | 192° |
| 2025-02-13 13:29 | 27.63970 | 86.69841 | 10322 ft | 115 kts | 232° |
| 2025-02-13 13:30 | 27.62946 | 86.68820 | 10185 ft | 124 kts | 155° |
| 2025-02-13 13:30 | 27.62569 | 86.69606 | 10154 ft | 122 kts | 78° |
| 2025-02-13 13:30 | 27.63924 | 86.70065 | 9890 ft | 108 kts | 352° |
| 2025-02-13 13:31 | 27.65465 | 86.69957 | 9686 ft | 116 kts | 7° |
| 2025-02-13 13:32 | 27.67589 | 86.71051 | 9329 ft | 120 kts | 47° |
| 2025-02-13 13:32 | 27.68482 | 86.72579 | 9186 ft | 106 kts | 58° |
| 2025-02-13 13:33 | 27.68770 | 86.73131 | 9412 ft | 0 kts | 58° |
| 2025-02-13 13:33 | 27.68771 | 86.73133 | 9413 ft | 1 kts | 77° |
| 2025-02-13 13:34 | 27.68785 | 86.73182 | 9423 ft | 1 kts | 26° |
| 2025-02-13 13:34 | 27.68619 | 86.72841 | 9270 ft | 87 kts | 240° |
| 2025-02-13 13:34 | 27.68231 | 86.72110 | 9341 ft | 115 kts | 237° |
| 2025-02-13 13:35 | 27.66927 | 86.71295 | 10072 ft | 114 kts | 182° |
| 2025-02-13 13:35 | 27.65280 | 86.71334 | 10516 ft | 130 kts | 181° |
| 2025-02-13 13:36 | 27.63884 | 86.70245 | 10184 ft | 112 kts | 312° |
| 2025-02-13 13:37 | 27.65392 | 86.70341 | 10035 ft | 119 kts | 15° |
| 2025-02-13 13:37 | 27.66181 | 86.70621 | 9948 ft | 121 kts | 14° |
| 2025-02-13 13:37 | 27.67677 | 86.71349 | 9538 ft | 119 kts | 41° |
| 2025-02-13 13:38 | 27.68582 | 86.72777 | 9233 ft | 99 kts | 57° |
| 2025-02-13 13:39 | 27.68790 | 86.73164 | 9423 ft | 2 kts | 207° |
| 2025-02-13 13:39 | 27.68356 | 86.72352 | 9206 ft | 109 kts | 237° |
| 2025-02-13 13:40 | 27.67324 | 86.71067 | 9792 ft | 115 kts | 198° |
| 2025-02-13 13:40 | 27.65730 | 86.70990 | 10423 ft | 117 kts | 182° |
| 2025-02-13 13:41 | 27.64478 | 86.70512 | 10174 ft | 113 kts | 287° |
| 2025-02-13 13:41 | 27.65831 | 86.70258 | 9817 ft | 110 kts | 11° |
| 2025-02-13 13:42 | 27.67305 | 86.70798 | 9636 ft | 114 kts | 32° |
| 2025-02-13 13:42 | 27.67863 | 86.71400 | 9356 ft | 113 kts | 54° |
| 2025-02-13 13:42 | 27.68623 | 86.72850 | 9269 ft | 91 kts | 58° |
| 2025-02-13 13:43 | 27.68793 | 86.73183 | 9422 ft | 0 kts | 37° |
| 2025-02-13 13:44 | 27.68231 | 86.72207 | 9331 ft | 107 kts | 224° |
| 2025-02-13 13:45 | 27.66049 | 86.71416 | 10341 ft | 110 kts | 198° |
| 2025-02-13 13:45 | 27.65277 | 86.71171 | 10516 ft | 128 kts | 198° |
| 2025-02-13 13:45 | 27.63464 | 86.70479 | 10452 ft | 127 kts | 222° |
| 2025-02-13 13:46 | 27.63730 | 86.69138 | 10123 ft | 108 kts | 354° |
| 2025-02-13 13:46 | 27.65314 | 86.69636 | 10052 ft | 119 kts | 17° |
| 2025-02-13 13:47 | 27.66085 | 86.69944 | 10032 ft | 116 kts | 19° |
| 2025-02-13 13:47 | 27.67472 | 86.70778 | 9696 ft | 113 kts | 43° |
| 2025-02-13 13:48 | 27.68327 | 86.72271 | 9217 ft | 108 kts | 59° |
| 2025-02-13 13:48 | 27.68785 | 86.73172 | 9422 ft | 1 kts | 24° |
| 2025-02-13 13:49 | 27.68696 | 86.72991 | 9343 ft | 60 kts | 240° |
| 2025-02-13 13:49 | 27.68382 | 86.72387 | 9269 ft | 102 kts | 238° |
| 2025-02-13 13:50 | 27.66449 | 86.71499 | 10055 ft | 109 kts | 186° |
| 2025-02-13 13:50 | 27.64967 | 86.71170 | 10252 ft | 120 kts | 237° |
| 2025-02-13 13:51 | 27.65708 | 86.70059 | 9992 ft | 113 kts | 3° |
| 2025-02-13 13:51 | 27.67169 | 86.70710 | 9626 ft | 114 kts | 26° |
| 2025-02-13 13:51 | 27.67791 | 86.71241 | 9417 ft | 111 kts | 44° |
| 2025-02-13 13:52 | 27.68767 | 86.73129 | 9407 ft | 5 kts | 59° |
| 2025-02-13 13:53 | 27.68740 | 86.73145 | 9423 ft | 0 kts | 221° |